SXS71H LWSK-LTAI
Flight info
| Callsign | SXS71H |
|---|---|
| Flight time | 1h 22m |
| Altitude | 37000 |
| Route | RUGAS2D RUGAS UN128 FSK DCT RIKSO UP14 LAVTA UN135 NESIL NESIL1U |
| Aircraft | B738/M-SADE1E2FGHIRWXY/H |
Departure
| Time | 2026-05-07 14:17 |
|---|---|
| Airport | Skopje International Airport (LWSK) |
Arrival
| Time | 2026-05-07 15:39 |
|---|---|
| Airport | Antalya International Airport (LTAI) |
| Time | Latitude | Longitude | Altitude | Speed | Heading |
|---|---|---|---|---|---|
| 2026-05-07 14:08 | 41.95994 | 21.62611 | 792 ft | 2 kts | 75° |
| 2026-05-07 14:09 | 41.95994 | 21.62607 | 792 ft | 2 kts | 69° |
| 2026-05-07 14:09 | 41.95994 | 21.62602 | 792 ft | 3 kts | 90° |
| 2026-05-07 14:09 | 41.95994 | 21.62584 | 792 ft | 3 kts | 79° |
| 2026-05-07 14:10 | 41.96020 | 21.62541 | 792 ft | 3 kts | 166° |
| 2026-05-07 14:10 | 41.96040 | 21.62534 | 792 ft | 3 kts | 166° |
| 2026-05-07 14:10 | 41.96054 | 21.62530 | 792 ft | 1 kts | 166° |
| 2026-05-07 14:11 | 41.96057 | 21.62529 | 792 ft | 2 kts | 166° |
| 2026-05-07 14:12 | 41.96057 | 21.62528 | 792 ft | 0 kts | 166° |
| 2026-05-07 14:12 | 41.96051 | 21.62531 | 792 ft | 3 kts | 166° |
| 2026-05-07 14:13 | 41.96024 | 21.62523 | 792 ft | 5 kts | 224° |
| 2026-05-07 14:13 | 41.95990 | 21.62478 | 790 ft | 9 kts | 188° |
| 2026-05-07 14:13 | 41.95920 | 21.62498 | 790 ft | 11 kts | 165° |
| 2026-05-07 14:13 | 41.95839 | 21.62527 | 789 ft | 14 kts | 165° |
| 2026-05-07 14:14 | 41.95736 | 21.62562 | 786 ft | 17 kts | 165° |
| 2026-05-07 14:14 | 41.95612 | 21.62607 | 785 ft | 19 kts | 165° |
| 2026-05-07 14:14 | 41.95485 | 21.62652 | 783 ft | 19 kts | 165° |
| 2026-05-07 14:14 | 41.95359 | 21.62696 | 781 ft | 18 kts | 166° |
| 2026-05-07 14:15 | 41.95238 | 21.62739 | 779 ft | 18 kts | 166° |
| 2026-05-07 14:15 | 41.95142 | 21.62701 | 777 ft | 15 kts | 254° |
| 2026-05-07 14:15 | 41.95116 | 21.62570 | 778 ft | 14 kts | 256° |
| 2026-05-07 14:15 | 41.95131 | 21.62501 | 780 ft | 8 kts | 342° |
| 2026-05-07 14:16 | 41.95188 | 21.62483 | 780 ft | 9 kts | 345° |
| 2026-05-07 14:16 | 41.95340 | 21.62430 | 780 ft | 51 kts | 345° |
| 2026-05-07 14:16 | 41.95909 | 21.62232 | 786 ft | 116 kts | 345° |
| 2026-05-07 14:16 | 41.96881 | 21.61892 | 794 ft | 170 kts | 346° |
| 2026-05-07 14:17 | 41.98080 | 21.61458 | 1287 ft | 181 kts | 346° |
| 2026-05-07 14:17 | 41.99330 | 21.61013 | 1911 ft | 190 kts | 345° |
| 2026-05-07 14:17 | 42.00608 | 21.60697 | 2771 ft | 187 kts | 9° |
| 2026-05-07 14:17 | 42.01737 | 21.61435 | 3452 ft | 185 kts | 53° |
| 2026-05-07 14:18 | 42.02244 | 21.63024 | 3988 ft | 193 kts | 88° |
| 2026-05-07 14:18 | 42.01939 | 21.64808 | 4421 ft | 201 kts | 130° |
| 2026-05-07 14:18 | 42.00824 | 21.65788 | 5045 ft | 194 kts | 173° |
| 2026-05-07 14:18 | 41.99511 | 21.65611 | 5562 ft | 192 kts | 197° |
| 2026-05-07 14:19 | 41.98181 | 21.65151 | 5920 ft | 207 kts | 197° |
| 2026-05-07 14:19 | 41.96715 | 21.64642 | 6085 ft | 228 kts | 196° |
| 2026-05-07 14:19 | 41.95115 | 21.64106 | 6293 ft | 246 kts | 196° |
| 2026-05-07 14:19 | 41.93402 | 21.63544 | 6651 ft | 259 kts | 194° |
| 2026-05-07 14:20 | 41.91559 | 21.63514 | 7371 ft | 275 kts | 164° |
| 2026-05-07 14:20 | 41.89962 | 21.64995 | 8323 ft | 288 kts | 133° |
| 2026-05-07 14:20 | 41.89005 | 21.67413 | 9209 ft | 304 kts | 104° |
| 2026-05-07 14:20 | 41.88995 | 21.70290 | 10027 ft | 315 kts | 85° |
| 2026-05-07 14:21 | 41.88738 | 21.73174 | 10795 ft | 314 kts | 119° |
| 2026-05-07 14:21 | 41.87582 | 21.75608 | 11717 ft | 310 kts | 129° |
| 2026-05-07 14:21 | 41.86302 | 21.77969 | 12424 ft | 316 kts | 129° |
| 2026-05-07 14:21 | 41.84991 | 21.80364 | 13240 ft | 319 kts | 129° |
| 2026-05-07 14:22 | 41.83677 | 21.82789 | 14059 ft | 323 kts | 129° |
| 2026-05-07 14:22 | 41.82358 | 21.85252 | 14789 ft | 327 kts | 128° |
| 2026-05-07 14:22 | 41.81464 | 21.86936 | 15258 ft | 329 kts | 128° |
| 2026-05-07 14:22 | 41.80136 | 21.89458 | 15909 ft | 333 kts | 128° |
| 2026-05-07 14:23 | 41.79251 | 21.91147 | 16366 ft | 335 kts | 128° |
| 2026-05-07 14:23 | 41.77909 | 21.93716 | 17051 ft | 338 kts | 128° |
| 2026-05-07 14:24 | 41.68919 | 22.10970 | 21003 ft | 356 kts | 129° |
| 2026-05-07 14:25 | 41.67491 | 22.13702 | 21548 ft | 359 kts | 129° |
| 2026-05-07 14:25 | 41.66062 | 22.16437 | 22137 ft | 361 kts | 129° |
| 2026-05-07 14:25 | 41.64601 | 22.19227 | 22453 ft | 372 kts | 129° |
| 2026-05-07 14:25 | 41.63606 | 22.21122 | 22519 ft | 383 kts | 129° |
| 2026-05-07 14:27 | 41.54375 | 22.38689 | 23415 ft | 448 kts | 128° |
| 2026-05-07 14:27 | 41.52573 | 22.42117 | 23876 ft | 449 kts | 128° |
| 2026-05-07 14:27 | 41.50797 | 22.45491 | 24293 ft | 450 kts | 128° |
| 2026-05-07 14:27 | 41.48983 | 22.48911 | 24624 ft | 453 kts | 130° |
| 2026-05-07 14:28 | 41.47121 | 22.52324 | 24946 ft | 457 kts | 129° |
| 2026-05-07 14:28 | 41.45282 | 22.55803 | 25305 ft | 459 kts | 127° |
| 2026-05-07 14:28 | 41.43501 | 22.59342 | 25674 ft | 460 kts | 128° |
| 2026-05-07 14:28 | 41.41661 | 22.62844 | 26006 ft | 462 kts | 128° |
| 2026-05-07 14:29 | 41.39789 | 22.66325 | 26314 ft | 464 kts | 129° |
| 2026-05-07 14:29 | 41.37906 | 22.69829 | 26612 ft | 466 kts | 129° |
| 2026-05-07 14:29 | 41.36025 | 22.73352 | 26959 ft | 468 kts | 128° |
| 2026-05-07 14:29 | 41.34140 | 22.76885 | 27298 ft | 469 kts | 129° |
| 2026-05-07 14:30 | 41.31977 | 22.80104 | 27572 ft | 465 kts | 144° |
| 2026-05-07 14:30 | 41.29331 | 22.82539 | 27876 ft | 463 kts | 151° |
| 2026-05-07 14:30 | 41.26592 | 22.84814 | 28223 ft | 464 kts | 151° |
| 2026-05-07 14:30 | 41.23851 | 22.87098 | 28520 ft | 467 kts | 151° |
| 2026-05-07 14:31 | 41.21106 | 22.89425 | 28763 ft | 469 kts | 150° |
| 2026-05-07 14:31 | 41.18366 | 22.91785 | 29064 ft | 471 kts | 150° |
| 2026-05-07 14:31 | 41.15629 | 22.94162 | 29504 ft | 469 kts | 150° |
| 2026-05-07 14:31 | 41.12909 | 22.96522 | 30029 ft | 466 kts | 150° |
| 2026-05-07 14:32 | 41.10271 | 22.99012 | 30458 ft | 466 kts | 143° |
| 2026-05-07 14:32 | 41.07934 | 23.01994 | 30830 ft | 468 kts | 133° |
| 2026-05-07 14:32 | 41.05861 | 23.05311 | 31217 ft | 467 kts | 132° |
| 2026-05-07 14:32 | 41.03847 | 23.08604 | 31554 ft | 466 kts | 132° |
| 2026-05-07 14:33 | 41.01812 | 23.11938 | 31869 ft | 465 kts | 131° |
| 2026-05-07 14:33 | 40.99777 | 23.15253 | 32164 ft | 464 kts | 132° |
| 2026-05-07 14:33 | 40.97736 | 23.18554 | 32490 ft | 463 kts | 132° |
| 2026-05-07 14:33 | 40.95693 | 23.21838 | 32840 ft | 461 kts | 132° |
| 2026-05-07 14:34 | 40.93654 | 23.25100 | 33204 ft | 460 kts | 132° |
| 2026-05-07 14:34 | 40.91617 | 23.28347 | 33552 ft | 458 kts | 133° |
| 2026-05-07 14:34 | 40.89580 | 23.31587 | 33859 ft | 457 kts | 133° |
| 2026-05-07 14:34 | 40.87550 | 23.34811 | 34152 ft | 457 kts | 133° |
| 2026-05-07 14:35 | 40.85518 | 23.38036 | 34389 ft | 457 kts | 133° |
| 2026-05-07 14:35 | 40.83479 | 23.41268 | 34510 ft | 460 kts | 133° |
| 2026-05-07 14:35 | 40.81426 | 23.44515 | 34650 ft | 461 kts | 133° |
| 2026-05-07 14:35 | 40.79370 | 23.47773 | 34813 ft | 463 kts | 132° |
| 2026-05-07 14:36 | 40.77303 | 23.51038 | 34996 ft | 463 kts | 133° |
| 2026-05-07 14:36 | 40.75220 | 23.54292 | 35164 ft | 465 kts | 132° |
| 2026-05-07 14:36 | 40.73147 | 23.57564 | 35347 ft | 465 kts | 132° |
| 2026-05-07 14:36 | 40.71071 | 23.60848 | 35511 ft | 467 kts | 132° |
| 2026-05-07 14:37 | 40.68987 | 23.64141 | 35667 ft | 468 kts | 133° |
| 2026-05-07 14:37 | 40.64804 | 23.70731 | 36001 ft | 470 kts | 133° |
| 2026-05-07 14:37 | 40.62700 | 23.74034 | 36146 ft | 471 kts | 133° |
| 2026-05-07 14:38 | 40.60589 | 23.77345 | 36259 ft | 474 kts | 133° |
| 2026-05-07 14:38 | 40.58463 | 23.80674 | 36376 ft | 476 kts | 133° |
| 2026-05-07 14:38 | 40.56335 | 23.84002 | 36555 ft | 476 kts | 133° |
| 2026-05-07 14:38 | 40.54203 | 23.87335 | 36761 ft | 476 kts | 133° |
| 2026-05-07 14:39 | 40.52067 | 23.90669 | 36918 ft | 477 kts | 133° |
| 2026-05-07 14:39 | 40.49926 | 23.94007 | 37040 ft | 479 kts | 133° |
| 2026-05-07 14:39 | 40.45610 | 24.00725 | 37109 ft | 482 kts | 133° |
| 2026-05-07 14:40 | 40.41321 | 24.07389 | 37115 ft | 480 kts | 133° |
| 2026-05-07 14:40 | 40.37012 | 24.14070 | 37118 ft | 479 kts | 133° |
| 2026-05-07 14:41 | 40.32749 | 24.20663 | 37115 ft | 478 kts | 133° |
| 2026-05-07 14:41 | 40.28465 | 24.27275 | 37116 ft | 478 kts | 133° |
| 2026-05-07 14:42 | 40.24220 | 24.33811 | 37119 ft | 478 kts | 133° |
| 2026-05-07 14:42 | 40.20114 | 24.40122 | 37113 ft | 478 kts | 133° |
| 2026-05-07 14:43 | 40.16732 | 24.45307 | 37119 ft | 479 kts | 133° |
| 2026-05-07 14:43 | 40.13785 | 24.49817 | 37124 ft | 479 kts | 133° |
| 2026-05-07 14:44 | 40.11562 | 24.53103 | 37122 ft | 479 kts | 136° |
| 2026-05-07 14:44 | 40.10432 | 24.54548 | 37021 ft | 477 kts | 146° |
| 2026-05-07 14:44 | 40.08875 | 24.55954 | 36350 ft | 487 kts | 150° |
| 2026-05-07 14:45 | 40.07166 | 24.57510 | 35939 ft | 495 kts | 143° |
| 2026-05-07 14:45 | 40.04982 | 24.60386 | 35455 ft | 495 kts | 130° |
| 2026-05-07 14:45 | 40.03609 | 24.62807 | 35301 ft | 486 kts | 127° |
| 2026-05-07 14:45 | 40.02459 | 24.65015 | 35448 ft | 472 kts | 126° |
| 2026-05-07 14:46 | 40.01117 | 24.67653 | 35466 ft | 460 kts | 126° |
| 2026-05-07 14:46 | 39.99968 | 24.69852 | 35426 ft | 451 kts | 127° |
| 2026-05-07 14:46 | 39.96344 | 24.76206 | 35407 ft | 444 kts | 131° |
| 2026-05-07 14:47 | 39.92372 | 24.82470 | 35492 ft | 453 kts | 133° |
| 2026-05-07 14:47 | 39.88216 | 24.88757 | 35582 ft | 463 kts | 133° |
| 2026-05-07 14:48 | 39.84684 | 24.94061 | 35659 ft | 470 kts | 133° |
| 2026-05-07 14:48 | 39.80378 | 25.00531 | 35822 ft | 476 kts | 133° |
| 2026-05-07 14:49 | 39.76020 | 25.07081 | 36054 ft | 481 kts | 133° |
| 2026-05-07 14:49 | 39.73831 | 25.10371 | 36248 ft | 481 kts | 133° |
| 2026-05-07 14:49 | 39.71641 | 25.13657 | 36451 ft | 481 kts | 133° |
| 2026-05-07 14:50 | 39.69451 | 25.16941 | 36607 ft | 482 kts | 133° |
| 2026-05-07 14:50 | 39.67249 | 25.20237 | 36759 ft | 483 kts | 133° |
| 2026-05-07 14:50 | 39.65043 | 25.23536 | 36936 ft | 484 kts | 133° |
| 2026-05-07 14:50 | 39.62836 | 25.26832 | 37099 ft | 484 kts | 133° |
| 2026-05-07 14:51 | 39.58393 | 25.33458 | 37121 ft | 488 kts | 133° |
| 2026-05-07 14:51 | 39.53939 | 25.40087 | 37125 ft | 487 kts | 133° |
| 2026-05-07 14:52 | 39.49492 | 25.46691 | 37114 ft | 486 kts | 133° |
| 2026-05-07 14:52 | 39.45047 | 25.53278 | 37124 ft | 486 kts | 133° |
| 2026-05-07 14:53 | 39.40625 | 25.59817 | 37123 ft | 486 kts | 133° |
| 2026-05-07 14:53 | 39.36171 | 25.66390 | 37127 ft | 486 kts | 133° |
| 2026-05-07 14:54 | 39.31706 | 25.72965 | 37121 ft | 487 kts | 133° |
| 2026-05-07 14:54 | 39.27238 | 25.79530 | 37123 ft | 487 kts | 133° |
| 2026-05-07 14:55 | 39.22759 | 25.86099 | 37124 ft | 487 kts | 133° |
| 2026-05-07 14:55 | 39.18271 | 25.92665 | 37111 ft | 488 kts | 133° |
| 2026-05-07 14:56 | 39.13769 | 25.99240 | 37124 ft | 489 kts | 133° |
| 2026-05-07 14:56 | 39.09261 | 26.05808 | 37136 ft | 490 kts | 133° |
| 2026-05-07 14:57 | 39.04734 | 26.12392 | 37129 ft | 490 kts | 133° |
| 2026-05-07 14:57 | 39.00212 | 26.18955 | 37119 ft | 490 kts | 133° |
| 2026-05-07 14:58 | 38.95720 | 26.25460 | 37125 ft | 490 kts | 133° |
| 2026-05-07 14:58 | 38.91199 | 26.31996 | 37124 ft | 489 kts | 133° |
| 2026-05-07 14:59 | 38.86689 | 26.38524 | 37109 ft | 488 kts | 131° |
| 2026-05-07 14:59 | 38.84747 | 26.42089 | 37130 ft | 489 kts | 119° |
| 2026-05-07 14:59 | 38.83298 | 26.46038 | 37135 ft | 489 kts | 110° |
| 2026-05-07 15:00 | 38.82342 | 26.50211 | 37127 ft | 488 kts | 99° |
| 2026-05-07 15:00 | 38.81810 | 26.54506 | 37141 ft | 487 kts | 97° |
| 2026-05-07 15:00 | 38.80862 | 26.63096 | 37141 ft | 487 kts | 97° |
| 2026-05-07 15:01 | 38.79846 | 26.71688 | 37129 ft | 488 kts | 98° |
| 2026-05-07 15:01 | 38.78775 | 26.80272 | 37124 ft | 488 kts | 98° |
| 2026-05-07 15:02 | 38.77697 | 26.88849 | 37128 ft | 487 kts | 98° |
| 2026-05-07 15:02 | 38.75872 | 26.97118 | 37137 ft | 488 kts | 115° |
| 2026-05-07 15:03 | 38.72283 | 27.04440 | 37141 ft | 486 kts | 128° |
| 2026-05-07 15:03 | 38.68141 | 27.11282 | 37118 ft | 486 kts | 129° |
| 2026-05-07 15:04 | 38.64022 | 27.18158 | 37124 ft | 487 kts | 128° |
| 2026-05-07 15:04 | 38.59941 | 27.25065 | 37122 ft | 487 kts | 127° |
| 2026-05-07 15:05 | 38.55854 | 27.31985 | 37106 ft | 488 kts | 128° |
| 2026-05-07 15:05 | 38.51762 | 27.38893 | 37110 ft | 488 kts | 128° |
| 2026-05-07 15:06 | 38.47658 | 27.45797 | 37126 ft | 488 kts | 128° |
| 2026-05-07 15:06 | 38.43554 | 27.52686 | 37114 ft | 488 kts | 128° |
| 2026-05-07 15:07 | 38.39443 | 27.59577 | 37134 ft | 488 kts | 128° |
| 2026-05-07 15:07 | 38.35332 | 27.66454 | 37114 ft | 488 kts | 127° |
| 2026-05-07 15:08 | 38.31214 | 27.73329 | 37134 ft | 487 kts | 128° |
| 2026-05-07 15:08 | 38.27095 | 27.80192 | 37135 ft | 488 kts | 128° |
| 2026-05-07 15:09 | 38.22960 | 27.87062 | 37139 ft | 489 kts | 128° |
| 2026-05-07 15:09 | 38.18818 | 27.93926 | 37133 ft | 490 kts | 128° |
| 2026-05-07 15:10 | 38.14671 | 28.00789 | 37135 ft | 490 kts | 128° |
| 2026-05-07 15:10 | 38.10516 | 28.07651 | 37144 ft | 490 kts | 128° |
| 2026-05-07 15:11 | 38.06383 | 28.14465 | 37130 ft | 491 kts | 128° |
| 2026-05-07 15:11 | 38.02222 | 28.21308 | 37130 ft | 491 kts | 128° |
| 2026-05-07 15:12 | 37.98048 | 28.28160 | 37103 ft | 489 kts | 128° |
| 2026-05-07 15:12 | 37.93886 | 28.34976 | 37130 ft | 489 kts | 128° |
| 2026-05-07 15:13 | 37.89723 | 28.41783 | 37140 ft | 489 kts | 128° |
| 2026-05-07 15:13 | 37.87630 | 28.45198 | 36874 ft | 493 kts | 128° |
| 2026-05-07 15:13 | 37.85527 | 28.48627 | 36619 ft | 492 kts | 128° |
| 2026-05-07 15:14 | 37.83435 | 28.52035 | 36358 ft | 489 kts | 128° |
| 2026-05-07 15:14 | 37.81350 | 28.55428 | 36091 ft | 489 kts | 128° |
| 2026-05-07 15:14 | 37.79305 | 28.58754 | 35468 ft | 490 kts | 128° |
| 2026-05-07 15:14 | 37.77256 | 28.62082 | 34933 ft | 489 kts | 128° |
| 2026-05-07 15:15 | 37.75167 | 28.65471 | 34296 ft | 490 kts | 128° |
| 2026-05-07 15:15 | 37.73210 | 28.68940 | 33613 ft | 492 kts | 121° |
| 2026-05-07 15:15 | 37.71618 | 28.72823 | 32987 ft | 490 kts | 112° |
| 2026-05-07 15:15 | 37.70517 | 28.76868 | 32415 ft | 487 kts | 105° |
| 2026-05-07 15:16 | 37.69606 | 28.80930 | 31741 ft | 487 kts | 104° |
| 2026-05-07 15:16 | 37.68707 | 28.85057 | 31048 ft | 489 kts | 104° |
| 2026-05-07 15:16 | 37.67804 | 28.89192 | 30340 ft | 490 kts | 104° |
| 2026-05-07 15:16 | 37.66882 | 28.93352 | 29518 ft | 492 kts | 104° |
| 2026-05-07 15:17 | 37.65949 | 28.97478 | 28982 ft | 486 kts | 104° |
| 2026-05-07 15:17 | 37.64966 | 29.01536 | 28404 ft | 482 kts | 105° |
| 2026-05-07 15:17 | 37.64002 | 29.05553 | 27886 ft | 476 kts | 103° |
| 2026-05-07 15:17 | 37.63150 | 29.09567 | 27351 ft | 471 kts | 102° |
| 2026-05-07 15:18 | 37.62301 | 29.13540 | 26817 ft | 467 kts | 104° |
| 2026-05-07 15:18 | 37.61406 | 29.17461 | 26307 ft | 463 kts | 104° |
| 2026-05-07 15:18 | 37.60494 | 29.21339 | 25792 ft | 459 kts | 104° |
| 2026-05-07 15:18 | 37.59583 | 29.25182 | 25282 ft | 456 kts | 104° |
| 2026-05-07 15:19 | 37.58647 | 29.28980 | 24775 ft | 452 kts | 105° |
| 2026-05-07 15:19 | 37.57738 | 29.32763 | 24249 ft | 449 kts | 104° |
| 2026-05-07 15:19 | 37.56862 | 29.36529 | 23735 ft | 447 kts | 103° |
| 2026-05-07 15:19 | 37.55998 | 29.40277 | 23140 ft | 444 kts | 103° |
| 2026-05-07 15:20 | 37.55138 | 29.43997 | 22594 ft | 440 kts | 104° |
| 2026-05-07 15:20 | 37.54281 | 29.47690 | 22058 ft | 436 kts | 104° |
| 2026-05-07 15:20 | 37.53428 | 29.51339 | 21571 ft | 433 kts | 104° |
| 2026-05-07 15:20 | 37.52579 | 29.54960 | 21084 ft | 429 kts | 104° |
| 2026-05-07 15:21 | 37.51714 | 29.58624 | 20557 ft | 426 kts | 104° |
| 2026-05-07 15:21 | 37.50884 | 29.62119 | 20096 ft | 423 kts | 104° |
| 2026-05-07 15:21 | 37.50048 | 29.65658 | 19602 ft | 421 kts | 104° |
| 2026-05-07 15:21 | 37.49215 | 29.69191 | 19095 ft | 420 kts | 104° |
| 2026-05-07 15:22 | 37.48395 | 29.72655 | 18604 ft | 417 kts | 104° |
| 2026-05-07 15:22 | 37.47588 | 29.76059 | 18059 ft | 416 kts | 104° |
| 2026-05-07 15:22 | 37.46763 | 29.79533 | 17538 ft | 413 kts | 104° |
| 2026-05-07 15:22 | 37.45942 | 29.82980 | 17041 ft | 409 kts | 104° |
| 2026-05-07 15:23 | 37.45127 | 29.86397 | 16553 ft | 405 kts | 104° |
| 2026-05-07 15:23 | 37.44322 | 29.89764 | 16075 ft | 402 kts | 104° |
| 2026-05-07 15:23 | 37.43521 | 29.93114 | 15612 ft | 398 kts | 105° |
| 2026-05-07 15:23 | 37.42727 | 29.96429 | 15097 ft | 396 kts | 105° |
| 2026-05-07 15:24 | 37.41933 | 29.99740 | 14595 ft | 394 kts | 105° |
| 2026-05-07 15:24 | 37.41294 | 30.02401 | 14211 ft | 392 kts | 105° |
| 2026-05-07 15:24 | 37.40508 | 30.05672 | 13698 ft | 389 kts | 105° |
| 2026-05-07 15:24 | 37.39727 | 30.08916 | 13192 ft | 385 kts | 105° |
| 2026-05-07 15:25 | 37.38954 | 30.12123 | 12723 ft | 381 kts | 104° |
| 2026-05-07 15:25 | 37.38183 | 30.15293 | 12249 ft | 377 kts | 106° |
| 2026-05-07 15:25 | 37.37358 | 30.18408 | 11788 ft | 373 kts | 105° |
| 2026-05-07 15:25 | 37.36612 | 30.21511 | 11325 ft | 370 kts | 104° |
| 2026-05-07 15:26 | 37.35891 | 30.24592 | 10981 ft | 362 kts | 104° |
| 2026-05-07 15:26 | 37.35188 | 30.27571 | 10853 ft | 350 kts | 105° |
| 2026-05-07 15:26 | 37.34500 | 30.30455 | 10700 ft | 339 kts | 105° |
| 2026-05-07 15:26 | 37.33848 | 30.33164 | 10564 ft | 329 kts | 105° |
| 2026-05-07 15:27 | 37.33204 | 30.35824 | 10434 ft | 320 kts | 105° |
| 2026-05-07 15:27 | 37.32571 | 30.38429 | 10308 ft | 310 kts | 105° |
| 2026-05-07 15:27 | 37.31948 | 30.40993 | 10176 ft | 302 kts | 105° |
| 2026-05-07 15:27 | 37.31350 | 30.43456 | 10030 ft | 294 kts | 105° |
| 2026-05-07 15:28 | 37.30755 | 30.45890 | 9793 ft | 291 kts | 105° |
| 2026-05-07 15:28 | 37.30159 | 30.48309 | 9520 ft | 288 kts | 104° |
| 2026-05-07 15:28 | 37.29846 | 30.50759 | 9273 ft | 282 kts | 91° |
| 2026-05-07 15:28 | 37.29741 | 30.53199 | 9053 ft | 278 kts | 89° |
| 2026-05-07 15:29 | 37.29673 | 30.55624 | 8756 ft | 277 kts | 90° |
| 2026-05-07 15:29 | 37.29520 | 30.58015 | 8435 ft | 278 kts | 92° |
| 2026-05-07 15:29 | 37.29390 | 30.60436 | 8175 ft | 276 kts | 91° |
| 2026-05-07 15:29 | 37.29252 | 30.62862 | 7912 ft | 275 kts | 92° |
| 2026-05-07 15:30 | 37.29093 | 30.65218 | 7651 ft | 274 kts | 92° |
| 2026-05-07 15:30 | 37.28934 | 30.67596 | 7427 ft | 273 kts | 94° |
| 2026-05-07 15:30 | 37.28721 | 30.69946 | 7183 ft | 270 kts | 94° |
| 2026-05-07 15:30 | 37.28562 | 30.72272 | 7003 ft | 265 kts | 91° |
| 2026-05-07 15:31 | 37.28432 | 30.74552 | 6869 ft | 260 kts | 92° |
| 2026-05-07 15:31 | 37.28291 | 30.76776 | 6767 ft | 250 kts | 93° |
| 2026-05-07 15:31 | 37.28125 | 30.78907 | 6681 ft | 243 kts | 91° |
| 2026-05-07 15:31 | 37.27824 | 30.80966 | 6503 ft | 241 kts | 116° |
| 2026-05-07 15:32 | 37.26641 | 30.82337 | 6429 ft | 230 kts | 159° |
| 2026-05-07 15:32 | 37.25150 | 30.82895 | 6295 ft | 221 kts | 172° |
| 2026-05-07 15:32 | 37.23641 | 30.82927 | 6144 ft | 215 kts | 181° |
| 2026-05-07 15:32 | 37.22144 | 30.82898 | 5998 ft | 216 kts | 180° |
| 2026-05-07 15:33 | 37.20652 | 30.82932 | 5739 ft | 212 kts | 180° |
| 2026-05-07 15:33 | 37.19200 | 30.82901 | 5470 ft | 207 kts | 183° |
| 2026-05-07 15:33 | 37.17752 | 30.82892 | 5104 ft | 209 kts | 179° |
| 2026-05-07 15:33 | 37.16313 | 30.82893 | 4805 ft | 206 kts | 184° |
| 2026-05-07 15:34 | 37.14850 | 30.82720 | 4492 ft | 205 kts | 187° |
| 2026-05-07 15:34 | 37.13472 | 30.82525 | 4200 ft | 204 kts | 187° |
| 2026-05-07 15:34 | 37.12079 | 30.82271 | 3898 ft | 202 kts | 186° |
| 2026-05-07 15:34 | 37.10696 | 30.82087 | 3641 ft | 198 kts | 185° |
| 2026-05-07 15:35 | 37.09340 | 30.81915 | 3413 ft | 193 kts | 185° |
| 2026-05-07 15:35 | 37.08029 | 30.81746 | 3349 ft | 187 kts | 185° |
| 2026-05-07 15:35 | 37.06724 | 30.81570 | 3130 ft | 193 kts | 186° |
| 2026-05-07 15:35 | 37.05384 | 30.81386 | 2881 ft | 194 kts | 186° |
| 2026-05-07 15:36 | 37.04049 | 30.81202 | 2627 ft | 192 kts | 185° |
| 2026-05-07 15:36 | 37.02734 | 30.81014 | 2376 ft | 189 kts | 185° |
| 2026-05-07 15:36 | 37.01438 | 30.80828 | 2125 ft | 186 kts | 188° |
| 2026-05-07 15:36 | 37.00166 | 30.80660 | 1876 ft | 182 kts | 181° |
| 2026-05-07 15:37 | 36.98936 | 30.80512 | 1654 ft | 173 kts | 191° |
| 2026-05-07 15:37 | 36.97792 | 30.80311 | 1455 ft | 159 kts | 182° |
| 2026-05-07 15:37 | 36.96683 | 30.80244 | 1224 ft | 160 kts | 186° |
| 2026-05-07 15:37 | 36.95589 | 30.80001 | 969 ft | 157 kts | 181° |
| 2026-05-07 15:38 | 36.94520 | 30.79871 | 738 ft | 156 kts | 182° |
| 2026-05-07 15:38 | 36.93445 | 30.79749 | 580 ft | 157 kts | 186° |
| 2026-05-07 15:38 | 36.92338 | 30.79583 | 397 ft | 161 kts | 185° |
| 2026-05-07 15:38 | 36.91231 | 30.79435 | 207 ft | 157 kts | 184° |
| 2026-05-07 15:39 | 36.90533 | 30.79341 | 202 ft | 141 kts | 188° |
| 2026-05-07 15:39 | 36.89626 | 30.79220 | 188 ft | 48 kts | 184° |
| 2026-05-07 15:39 | 36.89419 | 30.79188 | 189 ft | 43 kts | 186° |
| 2026-05-07 15:39 | 36.89175 | 30.79157 | 188 ft | 19 kts | 183° |
| 2026-05-07 15:40 | 36.89069 | 30.79202 | 193 ft | 16 kts | 155° |
| 2026-05-07 15:40 | 36.88988 | 30.79245 | 193 ft | 7 kts | 156° |
| 2026-05-07 15:40 | 36.88947 | 30.79267 | 194 ft | 6 kts | 156° |
| 2026-05-07 15:40 | 36.88918 | 30.79302 | 194 ft | 6 kts | 113° |
| 2026-05-07 15:41 | 36.88939 | 30.79338 | 203 ft | 6 kts | 13° |
| 2026-05-07 15:41 | 36.88980 | 30.79346 | 194 ft | 6 kts | 7° |
| 2026-05-07 15:41 | 36.89020 | 30.79352 | 200 ft | 6 kts | 6° |
| 2026-05-07 15:41 | 36.89062 | 30.79357 | 191 ft | 7 kts | 6° |
| 2026-05-07 15:42 | 36.89126 | 30.79366 | 191 ft | 11 kts | 6° |
| 2026-05-07 15:42 | 36.89211 | 30.79378 | 198 ft | 13 kts | 6° |
| 2026-05-07 15:42 | 36.89299 | 30.79390 | 203 ft | 13 kts | 6° |
| 2026-05-07 15:42 | 36.89386 | 30.79401 | 191 ft | 12 kts | 6° |
| 2026-05-07 15:43 | 36.89469 | 30.79413 | 196 ft | 12 kts | 6° |
| 2026-05-07 15:43 | 36.89552 | 30.79424 | 201 ft | 12 kts | 6° |
| 2026-05-07 15:43 | 36.89625 | 30.79434 | 204 ft | 8 kts | 6° |
| 2026-05-07 15:43 | 36.89664 | 30.79473 | 194 ft | 8 kts | 84° |
| 2026-05-07 15:44 | 36.89661 | 30.79520 | 195 ft | 4 kts | 98° |
| 2026-05-07 15:44 | 36.89641 | 30.79533 | 198 ft | 4 kts | 189° |
| 2026-05-07 15:44 | 36.89612 | 30.79528 | 195 ft | 4 kts | 187° |
| 2026-05-07 15:44 | 36.89595 | 30.79526 | 198 ft | 1 kts | 186° |
| 2026-05-07 15:45 | 36.89590 | 30.79525 | 191 ft | 1 kts | 186° |